createdAt,value
2023-05-10T00:00:23.192Z,242.72
2023-05-10T00:01:23.194Z,241.25
2023-05-10T00:02:23.329Z,240.73
2023-05-10T00:03:23.410Z,241.87
2023-05-10T00:04:23.371Z,241.88
2023-05-10T00:05:23.293Z,242.09
2023-05-10T00:06:23.323Z,243.02
2023-05-10T00:07:23.334Z,242.60
2023-05-10T00:08:23.412Z,242.78
2023-05-10T00:09:23.423Z,242.05
2023-05-10T00:10:23.421Z,243.96
2023-05-10T00:11:23.449Z,241.81
2023-05-10T00:12:23.434Z,242.63
2023-05-10T00:13:23.425Z,242.45
2023-05-10T00:14:23.495Z,243.29
2023-05-10T00:15:23.493Z,243.66
2023-05-10T00:16:24.435Z,242.99
2023-05-10T00:17:23.674Z,243.90
2023-05-10T00:18:23.582Z,244.16
2023-05-10T00:19:23.596Z,244.58
2023-05-10T00:20:23.664Z,245.38
2023-05-10T00:21:23.632Z,243.01
2023-05-10T00:22:23.698Z,244.48
2023-05-10T00:23:23.723Z,243.90
2023-05-10T00:24:23.794Z,243.75
2023-05-10T00:25:23.774Z,242.77
2023-05-10T00:26:23.805Z,242.97
2023-05-10T00:27:23.804Z,241.66
2023-05-10T00:28:23.896Z,241.07
2023-05-10T00:29:23.917Z,243.36
2023-05-10T00:30:23.988Z,240.99
2023-05-10T00:31:24.013Z,241.10
2023-05-10T00:32:24.056Z,242.55
2023-05-10T00:33:24.056Z,242.18
2023-05-10T00:34:24.036Z,241.96
2023-05-10T00:35:24.055Z,239.74
2023-05-10T00:36:24.077Z,241.49
2023-05-10T00:37:24.126Z,240.93
2023-05-10T00:38:24.154Z,242.52
2023-05-10T00:39:24.192Z,240.30
2023-05-10T00:40:24.183Z,242.48
2023-05-10T00:41:24.211Z,242.82
2023-05-10T00:42:24.181Z,242.65
2023-05-10T00:43:24.455Z,241.81
2023-05-10T00:44:24.263Z,241.91
2023-05-10T00:45:24.274Z,242.91
2023-05-10T00:46:24.336Z,242.78
2023-05-10T00:47:24.349Z,240.75
2023-05-10T00:48:24.403Z,240.42
2023-05-10T00:49:24.412Z,243.18
2023-05-10T00:50:24.430Z,240.74
2023-05-10T00:51:24.434Z,241.56
2023-05-10T00:52:24.944Z,241.55
2023-05-10T00:53:24.490Z,242.10
2023-05-10T00:54:24.497Z,243.40
2023-05-10T00:55:24.481Z,242.43
2023-05-10T00:56:24.565Z,243.68
2023-05-10T00:57:24.550Z,242.81
2023-05-10T00:58:24.581Z,243.97
2023-05-10T00:59:24.583Z,242.83
2023-05-10T01:00:24.624Z,243.23
2023-05-10T01:01:24.690Z,241.42
2023-05-10T01:02:24.736Z,241.15
2023-05-10T01:03:24.742Z,242.21
2023-05-10T01:04:24.766Z,241.85
2023-05-10T01:05:24.743Z,241.69
2023-05-10T01:06:24.755Z,243.71
2023-05-10T01:07:24.744Z,241.83
2023-05-10T01:08:24.774Z,242.17
2023-05-10T01:09:24.780Z,243.25
2023-05-10T01:10:24.821Z,243.17
2023-05-10T01:11:24.815Z,240.92
2023-05-10T01:12:24.898Z,243.66
2023-05-10T01:13:24.993Z,242.75
2023-05-10T01:14:24.869Z,241.46
2023-05-10T01:15:24.922Z,244.50
2023-05-10T01:16:25.088Z,243.61
2023-05-10T01:17:25.066Z,244.73
2023-05-10T01:18:25.057Z,242.89
2023-05-10T01:19:25.113Z,243.82
2023-05-10T01:20:25.093Z,243.56
2023-05-10T01:21:25.137Z,242.83
2023-05-10T01:22:25.151Z,242.30
2023-05-10T01:23:25.187Z,241.89
2023-05-10T01:24:25.254Z,243.43
2023-05-10T01:25:25.220Z,244.67
2023-05-10T01:26:25.285Z,241.67
2023-05-10T01:27:25.426Z,244.45
2023-05-10T01:28:25.327Z,243.24
2023-05-10T01:29:25.371Z,242.82
2023-05-10T01:30:25.573Z,243.47
2023-05-10T01:31:25.488Z,244.18
2023-05-10T01:32:25.448Z,244.13
2023-05-10T01:33:25.524Z,243.84
2023-05-10T01:34:25.463Z,245.11
2023-05-10T01:35:25.516Z,243.66
2023-05-10T01:36:25.539Z,245.70
2023-05-10T01:37:25.574Z,242.88
2023-05-10T01:38:25.592Z,245.48
2023-05-10T01:39:25.597Z,245.97
2023-05-10T01:40:25.607Z,244.79
2023-05-10T01:41:25.611Z,243.66
2023-05-10T01:42:25.614Z,245.16
2023-05-10T01:43:25.932Z,244.29
2023-05-10T01:44:25.707Z,241.24
2023-05-10T01:45:25.737Z,243.47
2023-05-10T01:46:25.729Z,245.39
2023-05-10T01:47:25.805Z,245.82
2023-05-10T01:48:25.829Z,243.89
2023-05-10T01:49:25.772Z,246.79
2023-05-10T01:50:25.887Z,245.61
2023-05-10T01:51:25.843Z,244.76
2023-05-10T01:52:25.859Z,245.10
2023-05-10T01:53:25.865Z,245.23
2023-05-10T01:54:25.843Z,244.60
2023-05-10T01:55:25.909Z,244.79
2023-05-10T01:56:25.911Z,244.11
2023-05-10T01:57:25.878Z,244.45
2023-05-10T01:58:25.948Z,245.66
2023-05-10T01:59:25.940Z,245.23
2023-05-10T02:00:25.982Z,244.78
2023-05-10T02:01:26.013Z,244.72
2023-05-10T02:02:26.050Z,244.94
2023-05-10T02:03:26.112Z,243.40
2023-05-10T02:04:26.136Z,244.79
2023-05-10T02:05:26.073Z,242.43
2023-05-10T02:06:26.106Z,244.89
2023-05-10T02:07:26.152Z,243.18
2023-05-10T02:08:26.193Z,244.82
2023-05-10T02:09:26.155Z,243.44
2023-05-10T02:10:26.184Z,245.25
2023-05-10T02:11:26.193Z,244.57
2023-05-10T02:12:26.218Z,244.41
2023-05-10T02:13:26.373Z,244.87
2023-05-10T02:14:26.247Z,245.59
2023-05-10T02:15:26.278Z,244.21
2023-05-10T02:16:26.296Z,245.19
2023-05-10T02:17:26.349Z,245.43
2023-05-10T02:18:26.323Z,246.03
2023-05-10T02:19:26.351Z,247.20
2023-05-10T02:20:26.306Z,244.92
2023-05-10T02:21:26.399Z,244.97
2023-05-10T02:22:26.400Z,245.75
2023-05-10T02:23:26.476Z,246.54
2023-05-10T02:24:26.485Z,246.39
2023-05-10T02:25:26.469Z,246.83
2023-05-10T02:26:26.497Z,245.70
2023-05-10T02:27:26.610Z,245.86
2023-05-10T02:28:26.567Z,246.32
2023-05-10T02:29:26.579Z,247.51
2023-05-10T02:30:26.642Z,246.16
2023-05-10T02:31:26.628Z,245.32
2023-05-10T02:32:26.722Z,245.93
2023-05-10T02:33:26.657Z,247.63
2023-05-10T02:34:26.728Z,245.62
2023-05-10T02:35:26.784Z,244.85
2023-05-10T02:36:26.762Z,247.07
2023-05-10T02:37:26.748Z,246.46
2023-05-10T02:38:26.778Z,245.96
2023-05-10T02:39:26.789Z,245.46
2023-05-10T02:40:28.658Z,245.52
2023-05-10T02:41:26.834Z,247.10
2023-05-10T02:42:26.884Z,245.67
2023-05-10T02:43:26.855Z,246.73
2023-05-10T02:44:26.863Z,244.50
2023-05-10T02:45:26.861Z,248.74
2023-05-10T02:46:26.965Z,247.47
2023-05-10T02:47:26.934Z,246.54
2023-05-10T02:48:26.988Z,246.60
2023-05-10T02:49:26.968Z,246.86
2023-05-10T02:50:26.997Z,247.19
2023-05-10T02:51:27.034Z,247.37
2023-05-10T02:52:27.076Z,248.30
2023-05-10T02:53:27.140Z,246.96
2023-05-10T02:54:27.142Z,247.74
2023-05-10T02:55:27.112Z,247.77
2023-05-10T02:56:27.204Z,247.73
2023-05-10T02:57:27.177Z,247.81
2023-05-10T02:58:27.232Z,247.19
2023-05-10T02:59:27.288Z,247.16
2023-05-10T03:00:27.244Z,248.05
2023-05-10T03:01:27.334Z,246.90
2023-05-10T03:02:27.341Z,245.86
2023-05-10T03:03:27.359Z,248.05
2023-05-10T03:04:27.424Z,246.27
2023-05-10T03:05:27.999Z,246.92
2023-05-10T03:06:27.433Z,247.07
2023-05-10T03:07:27.467Z,246.46
2023-05-10T03:08:27.441Z,247.78
2023-05-10T03:09:27.504Z,247.22
2023-05-10T03:10:27.511Z,247.83
2023-05-10T03:11:27.580Z,249.21
2023-05-10T03:12:27.589Z,248.05
2023-05-10T03:13:27.654Z,246.87
2023-05-10T03:14:27.598Z,247.60
2023-05-10T03:15:27.601Z,247.94
2023-05-10T03:16:27.823Z,247.59
2023-05-10T03:17:27.684Z,246.92
2023-05-10T03:18:28.015Z,248.27
2023-05-10T03:19:27.721Z,245.32
2023-05-10T03:20:27.717Z,248.25
2023-05-10T03:21:27.744Z,248.34
2023-05-10T03:22:27.790Z,247.29
2023-05-10T03:23:27.852Z,249.51
2023-05-10T03:24:27.820Z,248.79
2023-05-10T03:25:27.825Z,250.00
2023-05-10T03:26:27.879Z,248.82
2023-05-10T03:27:27.862Z,248.16
2023-05-10T03:28:27.903Z,247.27
2023-05-10T03:29:27.889Z,248.92
2023-05-10T03:30:27.921Z,247.44
2023-05-10T03:31:28.008Z,247.33
2023-05-10T03:32:28.049Z,247.18
2023-05-10T03:33:27.999Z,248.70
2023-05-10T03:34:27.969Z,248.46
2023-05-10T03:35:27.999Z,246.39
2023-05-10T03:36:27.994Z,248.48
2023-05-10T03:37:28.002Z,248.56
2023-05-10T03:38:29.740Z,249.21
2023-05-10T03:39:28.180Z,247.60
2023-05-10T03:40:28.230Z,248.76
2023-05-10T03:41:28.230Z,247.72
2023-05-10T03:42:28.267Z,247.32
2023-05-10T03:43:28.249Z,249.02
2023-05-10T03:44:28.277Z,248.61
2023-05-10T03:45:28.319Z,248.29
2023-05-10T03:46:28.459Z,247.03
2023-05-10T03:47:28.467Z,249.46
2023-05-10T03:48:28.455Z,248.40
2023-05-10T03:49:28.547Z,248.32
2023-05-10T03:50:28.497Z,248.75
2023-05-10T03:51:28.573Z,248.42
2023-05-10T03:52:28.561Z,248.54
2023-05-10T03:53:28.588Z,247.99
2023-05-10T03:54:28.622Z,247.62
2023-05-10T03:55:28.585Z,249.45
2023-05-10T03:56:29.011Z,248.14
2023-05-10T03:57:28.674Z,248.35
2023-05-10T03:58:28.725Z,247.20
2023-05-10T03:59:28.895Z,248.67
2023-05-10T04:00:28.720Z,249.16
2023-05-10T04:01:28.764Z,247.79
2023-05-10T04:02:28.896Z,247.81
2023-05-10T04:03:28.921Z,248.94
2023-05-10T04:04:28.865Z,247.15
2023-05-10T04:05:28.846Z,247.81
2023-05-10T04:06:28.950Z,249.15
2023-05-10T04:07:28.884Z,249.09
2023-05-10T04:08:28.952Z,247.63
2023-05-10T04:09:28.953Z,245.87
2023-05-10T04:10:28.973Z,245.87
2023-05-10T04:11:28.969Z,243.45
2023-05-10T04:12:29.006Z,240.70
2023-05-10T04:13:29.096Z,238.06
2023-05-10T04:14:29.541Z,237.30
2023-05-10T04:15:29.106Z,237.55
2023-05-10T04:16:29.155Z,238.12
2023-05-10T04:17:29.201Z,235.63
2023-05-10T04:18:29.153Z,234.26
2023-05-10T04:19:29.229Z,230.27
2023-05-10T04:20:29.252Z,227.20
2023-05-10T04:21:29.255Z,226.05
2023-05-10T04:22:29.261Z,223.92
2023-05-10T04:23:29.260Z,223.82
2023-05-10T04:24:29.260Z,221.08
2023-05-10T04:25:29.338Z,221.00
2023-05-10T04:26:29.279Z,220.59
2023-05-10T04:27:29.323Z,220.21
2023-05-10T04:28:29.338Z,217.04
2023-05-10T04:29:29.342Z,216.57
2023-05-10T04:30:29.448Z,214.81
2023-05-10T04:31:29.562Z,216.41
2023-05-10T04:32:29.460Z,216.84
2023-05-10T04:33:29.426Z,215.29
2023-05-10T04:34:29.477Z,212.27
2023-05-10T04:35:29.501Z,213.00
2023-05-10T04:36:29.482Z,211.23
2023-05-10T04:37:29.492Z,209.04
2023-05-10T04:38:29.494Z,209.83
2023-05-10T04:39:29.567Z,208.53
2023-05-10T04:40:29.637Z,208.21
2023-05-10T04:41:29.589Z,208.34
2023-05-10T04:42:29.597Z,208.16
2023-05-10T04:43:29.592Z,210.97
2023-05-10T04:44:29.643Z,209.98
2023-05-10T04:45:29.649Z,212.05
2023-05-10T04:46:29.754Z,211.14
2023-05-10T04:47:29.699Z,211.24
2023-05-10T04:48:29.664Z,210.48
2023-05-10T04:49:29.679Z,211.89
2023-05-10T04:50:29.705Z,210.96
2023-05-10T04:51:30.010Z,210.54
2023-05-10T04:52:29.720Z,211.74
2023-05-10T04:53:29.752Z,215.62
2023-05-10T04:54:29.781Z,216.91
2023-05-10T04:55:29.775Z,221.40
2023-05-10T04:56:29.834Z,227.76
2023-05-10T04:57:29.834Z,235.14
2023-05-10T04:58:29.870Z,237.57
2023-05-10T04:59:29.911Z,230.25
2023-05-10T05:00:29.915Z,225.06
2023-05-10T05:01:29.966Z,221.22
2023-05-10T05:02:30.014Z,218.04
2023-05-10T05:03:30.027Z,215.05
2023-05-10T05:04:29.996Z,212.43
2023-05-10T05:05:30.009Z,209.39
2023-05-10T05:06:29.964Z,208.43
2023-05-10T05:07:30.001Z,207.94
2023-05-10T05:08:30.033Z,208.47
2023-05-10T05:09:30.030Z,207.05
2023-05-10T05:10:30.145Z,207.79
2023-05-10T05:11:30.114Z,207.53
2023-05-10T05:12:30.116Z,209.52
2023-05-10T05:13:30.275Z,206.01
2023-05-10T05:14:30.161Z,206.90
2023-05-10T05:15:30.164Z,206.88
2023-05-10T05:16:30.211Z,204.67
2023-05-10T05:17:30.308Z,205.86
2023-05-10T05:18:30.206Z,201.96
2023-05-10T05:19:30.191Z,201.84
2023-05-10T05:20:30.237Z,204.34
2023-05-10T05:21:30.214Z,208.36
2023-05-10T05:22:30.286Z,207.33
2023-05-10T05:23:30.234Z,203.65
2023-05-10T05:24:30.311Z,205.45
2023-05-10T05:25:30.368Z,202.72
2023-05-10T05:26:30.328Z,198.28
2023-05-10T05:27:30.374Z,189.89
2023-05-10T05:28:30.333Z,181.20
2023-05-10T05:29:30.398Z,182.79
2023-05-10T05:30:30.388Z,182.53
2023-05-10T05:31:30.485Z,178.98
2023-05-10T05:32:30.474Z,183.51
2023-05-10T05:33:30.471Z,185.60
2023-05-10T05:34:30.444Z,188.05
2023-05-10T05:35:30.495Z,187.10
2023-05-10T05:36:30.915Z,169.56
2023-05-10T05:37:30.534Z,149.62
2023-05-10T05:38:30.593Z,135.25
2023-05-10T05:39:30.643Z,130.84
2023-05-10T05:40:30.617Z,121.69
2023-05-10T05:41:30.665Z,103.19
2023-05-10T05:42:30.674Z,85.92
2023-05-10T05:43:31.543Z,82.01
2023-05-10T05:44:31.061Z,73.34
2023-05-10T05:45:31.591Z,54.90
2023-05-10T05:46:30.803Z,49.01
2023-05-10T05:47:30.838Z,42.22
2023-05-10T05:48:30.882Z,38.99
2023-05-10T05:49:31.527Z,39.18
2023-05-10T05:50:31.537Z,36.43
2023-05-10T05:51:30.909Z,34.85
2023-05-10T05:52:30.916Z,29.10
2023-05-10T05:53:30.921Z,25.94
2023-05-10T05:54:30.913Z,26.37
2023-05-10T05:55:31.034Z,29.65
2023-05-10T05:56:31.033Z,31.30
2023-05-10T05:57:31.076Z,34.06
2023-05-10T05:58:31.096Z,34.33
2023-05-10T05:59:31.132Z,42.44
2023-05-10T06:00:31.290Z,42.59
2023-05-10T06:01:31.566Z,34.38
2023-05-10T06:02:31.403Z,26.74
2023-05-10T06:03:31.504Z,27.71
2023-05-10T06:04:31.428Z,30.75
2023-05-10T06:05:31.390Z,32.71
2023-05-10T06:06:31.556Z,40.85
2023-05-10T06:07:31.566Z,39.47
2023-05-10T06:08:31.527Z,28.84
2023-05-10T06:09:32.045Z,26.01
2023-05-10T06:10:31.607Z,25.47
2023-05-10T06:11:32.064Z,29.30
2023-05-10T06:12:31.692Z,36.70
2023-05-10T06:13:31.748Z,43.35
2023-05-10T06:14:31.767Z,51.05
2023-05-10T06:15:31.827Z,52.88
2023-05-10T06:16:31.850Z,54.62
2023-05-10T06:17:31.846Z,57.69
2023-05-10T06:18:31.885Z,62.15
2023-05-10T06:19:31.920Z,63.84
2023-05-10T06:20:31.931Z,59.80
2023-05-10T06:21:32.006Z,58.38
2023-05-10T06:22:32.078Z,54.81
2023-05-10T06:23:32.090Z,58.09
2023-05-10T06:24:32.052Z,57.10
2023-05-10T06:25:32.101Z,62.02
2023-05-10T06:26:33.052Z,59.22
2023-05-10T06:27:32.177Z,58.79
2023-05-10T06:28:32.194Z,59.62
2023-05-10T06:29:32.198Z,63.13
2023-05-10T06:30:32.317Z,68.73
2023-05-10T06:31:32.347Z,76.71
2023-05-10T06:32:32.435Z,85.57
2023-05-10T06:33:32.332Z,100.28
2023-05-10T06:34:32.391Z,105.98
2023-05-10T06:35:32.410Z,110.94
2023-05-10T06:36:32.436Z,117.84
2023-05-10T06:37:32.458Z,128.17
2023-05-10T06:38:32.568Z,122.09
2023-05-10T06:39:32.604Z,112.92
2023-05-10T06:40:32.545Z,94.50
2023-05-10T06:41:32.546Z,69.05
2023-05-10T06:42:32.593Z,61.78
2023-05-10T06:43:32.600Z,59.81
2023-05-10T06:44:32.679Z,61.29
2023-05-10T06:45:32.651Z,60.27
2023-05-10T06:46:32.756Z,55.25
2023-05-10T06:47:32.761Z,56.16
2023-05-10T06:48:33.106Z,47.26
2023-05-10T06:49:34.704Z,42.69
2023-05-10T06:50:32.851Z,40.21
2023-05-10T06:51:32.817Z,41.39
2023-05-10T06:52:32.838Z,49.70
2023-05-10T06:53:32.888Z,51.81
2023-05-10T06:54:32.858Z,40.76
2023-05-10T06:55:33.125Z,25.54
2023-05-10T06:56:32.865Z,29.11
2023-05-10T06:57:33.087Z,36.15
2023-05-10T06:58:33.122Z,41.91
2023-05-10T06:59:32.980Z,40.49
2023-05-10T07:00:33.588Z,31.55
2023-05-10T07:01:33.059Z,35.00
2023-05-10T07:02:33.168Z,43.47
2023-05-10T07:03:33.637Z,57.65
2023-05-10T07:04:33.180Z,71.38
2023-05-10T07:05:33.224Z,79.70
2023-05-10T07:06:33.938Z,86.43
2023-05-10T07:07:33.103Z,94.89
2023-05-10T07:08:33.603Z,104.82
2023-05-10T07:09:33.214Z,114.38
2023-05-10T07:10:33.258Z,123.67
2023-05-10T07:11:33.270Z,127.12
2023-05-10T07:12:33.408Z,136.31
2023-05-10T07:13:33.573Z,143.16
2023-05-10T07:14:33.457Z,144.03
2023-05-10T07:15:33.612Z,152.14
2023-05-10T07:16:34.264Z,156.89
2023-05-10T07:17:33.632Z,157.30
2023-05-10T07:18:33.637Z,162.20
2023-05-10T07:19:35.095Z,166.40
2023-05-10T07:20:33.641Z,168.15
2023-05-10T07:21:33.712Z,171.88
2023-05-10T07:22:34.068Z,175.19
2023-05-10T07:23:34.059Z,177.61
2023-05-10T07:24:33.764Z,183.02
2023-05-10T07:25:33.771Z,183.95
2023-05-10T07:26:33.768Z,188.55
2023-05-10T07:27:33.932Z,191.20
2023-05-10T07:28:33.878Z,194.19
2023-05-10T07:29:33.938Z,197.44
2023-05-10T07:30:36.756Z,197.97
2023-05-10T07:31:33.886Z,201.31
2023-05-10T07:32:33.988Z,203.96
2023-05-10T07:33:33.884Z,208.72
2023-05-10T07:34:34.659Z,212.63
2023-05-10T07:35:34.160Z,217.44
2023-05-10T07:36:34.599Z,215.82
2023-05-10T07:37:34.083Z,218.34
2023-05-10T07:38:33.809Z,221.82
2023-05-10T07:39:34.072Z,222.80
2023-05-10T07:40:34.097Z,228.50
2023-05-10T07:41:35.736Z,229.85
2023-05-10T07:42:33.780Z,235.82
2023-05-10T07:43:33.779Z,234.53
2023-05-10T07:44:33.741Z,236.97
2023-05-10T07:45:33.758Z,238.42
2023-05-10T07:46:33.743Z,239.17
2023-05-10T07:47:33.792Z,241.84
2023-05-10T07:48:33.773Z,244.18
2023-05-10T07:49:33.819Z,246.14
2023-05-10T07:50:33.856Z,248.63
2023-05-10T07:51:34.121Z,248.20
2023-05-10T07:52:33.870Z,247.77
2023-05-10T07:53:33.912Z,248.46
2023-05-10T07:54:33.890Z,248.12
2023-05-10T07:55:33.980Z,249.13
2023-05-10T07:56:34.015Z,250.00
2023-05-10T07:57:33.984Z,248.19
2023-05-10T07:58:34.038Z,248.79
2023-05-10T07:59:34.142Z,249.98
2023-05-10T08:00:34.117Z,249.21
2023-05-10T08:01:34.113Z,248.89
2023-05-10T08:02:34.264Z,247.40
2023-05-10T08:03:34.261Z,249.21
2023-05-10T08:04:34.244Z,248.74
2023-05-10T08:05:35.777Z,248.70
2023-05-10T08:06:34.189Z,248.97
2023-05-10T08:07:34.241Z,248.75
2023-05-10T08:08:34.252Z,247.66
2023-05-10T08:09:35.192Z,249.00
2023-05-10T08:10:35.067Z,249.29
2023-05-10T08:11:35.134Z,250.00
2023-05-10T08:12:34.308Z,249.01
2023-05-10T08:13:35.177Z,247.50
2023-05-10T08:14:34.356Z,248.45
2023-05-10T08:15:34.392Z,248.77
2023-05-10T08:16:35.134Z,247.77
2023-05-10T08:17:34.473Z,244.25
2023-05-10T08:18:35.156Z,247.80
2023-05-10T08:19:34.453Z,247.02
2023-05-10T08:20:34.564Z,250.00
2023-05-10T08:21:34.513Z,246.37
2023-05-10T08:22:35.132Z,249.54
2023-05-10T08:23:34.600Z,248.54
2023-05-10T08:24:37.162Z,247.02
2023-05-10T08:25:34.947Z,248.21
2023-05-10T08:26:34.921Z,247.96
2023-05-10T08:27:34.860Z,248.78
2023-05-10T08:28:35.253Z,248.47
2023-05-10T08:29:46.263Z,245.62
2023-05-10T08:30:35.966Z,245.71
2023-05-10T08:31:34.998Z,246.11
2023-05-10T08:32:34.932Z,247.14
2023-05-10T08:33:34.893Z,248.20
2023-05-10T08:34:34.905Z,245.32
2023-05-10T08:35:34.900Z,247.23
2023-05-10T08:36:34.884Z,248.02
2023-05-10T08:37:35.596Z,247.36
2023-05-10T08:38:35.654Z,246.46
2023-05-10T08:39:35.222Z,246.53
2023-05-10T08:40:34.871Z,247.60
2023-05-10T08:41:34.897Z,246.06
2023-05-10T08:42:34.817Z,240.75
2023-05-10T08:43:34.865Z,239.04
2023-05-10T08:44:35.660Z,239.30
2023-05-10T08:45:34.945Z,236.41
2023-05-10T08:46:34.824Z,235.25
2023-05-10T08:47:34.874Z,234.08
2023-05-10T08:48:34.860Z,232.45
2023-05-10T08:49:34.905Z,233.47
2023-05-10T08:50:34.904Z,233.64
2023-05-10T08:51:34.922Z,235.16
2023-05-10T08:52:34.983Z,233.45
2023-05-10T08:53:34.991Z,235.45
2023-05-10T08:54:35.010Z,232.64
2023-05-10T08:55:34.998Z,231.70
2023-05-10T08:56:35.002Z,231.35
2023-05-10T08:57:35.165Z,229.33
2023-05-10T08:58:35.670Z,230.67
2023-05-10T08:59:35.194Z,229.87
2023-05-10T09:00:35.233Z,233.31
2023-05-10T09:01:35.167Z,231.71
2023-05-10T09:02:35.163Z,230.78
2023-05-10T09:03:35.162Z,227.89
2023-05-10T09:04:35.208Z,224.82
2023-05-10T09:05:35.175Z,226.57
2023-05-10T09:06:35.187Z,223.44
2023-05-10T09:07:36.370Z,222.74
2023-05-10T09:08:35.237Z,222.42
2023-05-10T09:09:35.235Z,220.91
2023-05-10T09:10:35.306Z,221.10
2023-05-10T09:11:35.666Z,214.24
2023-05-10T09:12:35.328Z,215.69
2023-05-10T09:13:35.366Z,217.94
2023-05-10T09:14:35.356Z,214.03
2023-05-10T09:15:35.415Z,215.51
2023-05-10T09:16:35.407Z,214.92
2023-05-10T09:17:35.436Z,215.36
2023-05-10T09:18:35.518Z,214.57
2023-05-10T09:19:36.139Z,214.96
2023-05-10T09:20:35.443Z,213.24
2023-05-10T09:21:35.625Z,215.34
2023-05-10T09:22:35.498Z,216.13
2023-05-10T09:23:35.509Z,213.62
2023-05-10T09:24:35.512Z,219.16
2023-05-10T09:25:35.601Z,217.21
2023-05-10T09:26:35.627Z,217.57
2023-05-10T09:27:36.109Z,215.78
2023-05-10T09:28:38.801Z,218.79
2023-05-10T09:29:35.647Z,221.18
2023-05-10T09:30:35.604Z,218.57
2023-05-10T09:31:35.622Z,214.00
2023-05-10T09:32:35.656Z,214.39
2023-05-10T09:33:35.568Z,216.39
2023-05-10T09:34:35.587Z,218.08
2023-05-10T09:35:35.542Z,218.48
2023-05-10T09:36:35.601Z,224.62
2023-05-10T09:37:35.747Z,223.00
2023-05-10T09:38:36.112Z,219.50
2023-05-10T09:39:35.551Z,213.20
2023-05-10T09:40:35.572Z,207.14
2023-05-10T09:41:35.521Z,206.07
2023-05-10T09:42:35.534Z,202.53
2023-05-10T09:43:36.191Z,201.08
2023-05-10T09:44:35.555Z,206.50
2023-05-10T09:45:37.732Z,211.75
2023-05-10T09:46:35.530Z,211.90
2023-05-10T09:47:35.501Z,209.99
2023-05-10T09:48:35.491Z,211.90
2023-05-10T09:49:35.484Z,215.36
2023-05-10T09:50:35.595Z,221.30
2023-05-10T09:51:36.660Z,224.87
2023-05-10T09:52:35.703Z,226.15
2023-05-10T09:53:35.440Z,228.57
2023-05-10T09:54:35.472Z,233.01
2023-05-10T09:55:35.429Z,234.29
2023-05-10T09:56:35.450Z,233.91
2023-05-10T09:57:35.638Z,230.48
2023-05-10T09:58:35.438Z,234.40
2023-05-10T09:59:35.445Z,235.74
2023-05-10T10:00:35.419Z,239.37
2023-05-10T10:01:35.471Z,238.83
2023-05-10T10:02:37.215Z,238.54
2023-05-10T10:03:35.442Z,239.85
2023-05-10T10:04:35.536Z,239.23
2023-05-10T10:05:35.385Z,240.89
2023-05-10T10:06:35.416Z,240.54
2023-05-10T10:07:35.405Z,241.54
2023-05-10T10:08:35.430Z,242.34
2023-05-10T10:09:35.382Z,241.73
2023-05-10T10:10:35.341Z,241.36
2023-05-10T10:11:35.379Z,235.45
2023-05-10T10:12:35.324Z,228.08
2023-05-10T10:13:35.683Z,186.35
2023-05-10T10:14:35.663Z,167.87
2023-05-10T10:15:35.799Z,167.39
2023-05-10T10:16:35.350Z,169.22
2023-05-10T10:17:35.272Z,160.83
2023-05-10T10:18:36.234Z,164.58
2023-05-10T10:19:36.429Z,158.34
2023-05-10T10:20:35.282Z,167.10
2023-05-10T10:21:35.249Z,174.09
2023-05-10T10:22:35.710Z,179.22
2023-05-10T10:23:36.147Z,184.04
2023-05-10T10:24:35.218Z,184.86
2023-05-10T10:25:35.248Z,188.39
2023-05-10T10:26:35.776Z,191.07
2023-05-10T10:27:37.230Z,191.49
2023-05-10T10:28:35.309Z,186.93
2023-05-10T10:29:35.402Z,186.60
2023-05-10T10:30:35.420Z,191.19
2023-05-10T10:31:35.370Z,191.75
2023-05-10T10:32:35.466Z,190.54
2023-05-10T10:33:35.467Z,187.78
2023-05-10T10:34:35.451Z,193.05
2023-05-10T10:35:35.722Z,194.29
2023-05-10T10:36:35.537Z,197.47
2023-05-10T10:37:35.558Z,198.21
2023-05-10T10:38:35.568Z,201.52
2023-05-10T10:39:35.631Z,201.13
2023-05-10T10:40:35.647Z,204.70
2023-05-10T10:41:35.704Z,201.90
2023-05-10T10:42:35.687Z,198.35
2023-05-10T10:43:35.652Z,199.22
2023-05-10T10:44:37.198Z,197.99
2023-05-10T10:45:35.658Z,192.15
2023-05-10T10:46:35.798Z,193.28
2023-05-10T10:47:35.813Z,193.88
2023-05-10T10:48:35.732Z,194.39
2023-05-10T10:49:35.797Z,196.23
2023-05-10T10:50:35.805Z,200.67
2023-05-10T10:51:35.845Z,205.39
2023-05-10T10:52:35.824Z,205.87
2023-05-10T10:53:35.892Z,205.99
2023-05-10T10:54:35.943Z,206.02
2023-05-10T10:55:35.929Z,206.92
2023-05-10T10:56:37.191Z,204.36
2023-05-10T10:57:35.975Z,207.95
2023-05-10T10:58:36.025Z,204.14
2023-05-10T10:59:36.026Z,204.34
2023-05-10T11:00:36.065Z,200.06
2023-05-10T11:01:36.053Z,199.51
2023-05-10T11:02:36.151Z,199.90
2023-05-10T11:03:36.116Z,194.23
2023-05-10T11:04:36.272Z,187.96
2023-05-10T11:05:36.155Z,177.08
2023-05-10T11:06:36.241Z,178.34
2023-05-10T11:07:36.257Z,169.41
2023-05-10T11:08:38.217Z,167.89
2023-05-10T11:09:36.288Z,167.29
2023-05-10T11:10:36.343Z,168.60
2023-05-10T11:11:37.271Z,171.17
2023-05-10T11:12:36.369Z,170.58
2023-05-10T11:13:36.366Z,172.48
2023-05-10T11:14:36.386Z,173.24
2023-05-10T11:15:36.700Z,176.70
2023-05-10T11:16:36.480Z,170.56
2023-05-10T11:17:36.739Z,170.38
2023-05-10T11:18:36.504Z,169.37
2023-05-10T11:19:36.517Z,164.72
2023-05-10T11:20:36.509Z,167.19
2023-05-10T11:21:36.539Z,161.72
2023-05-10T11:22:36.525Z,162.47
2023-05-10T11:23:36.551Z,166.84
2023-05-10T11:24:36.603Z,171.02
2023-05-10T11:25:36.600Z,169.51
2023-05-10T11:26:36.681Z,168.13
2023-05-10T11:27:36.715Z,168.19
2023-05-10T11:28:36.720Z,171.95
2023-05-10T11:29:36.724Z,173.58
2023-05-10T11:30:36.752Z,174.56
2023-05-10T11:31:36.810Z,179.43
2023-05-10T11:32:36.897Z,181.46
2023-05-10T11:33:36.824Z,177.14
2023-05-10T11:34:36.874Z,176.56
2023-05-10T11:35:36.860Z,176.71
2023-05-10T11:36:37.079Z,181.00
2023-05-10T11:37:36.951Z,182.58
2023-05-10T11:38:37.003Z,181.21
2023-05-10T11:39:36.993Z,179.99
2023-05-10T11:40:37.044Z,180.57
2023-05-10T11:41:37.097Z,181.76
2023-05-10T11:42:37.088Z,182.88
2023-05-10T11:43:37.239Z,185.93
2023-05-10T11:44:37.273Z,190.21
2023-05-10T11:45:37.153Z,187.63
2023-05-10T11:46:37.176Z,189.57
2023-05-10T11:47:37.229Z,186.74
2023-05-10T11:48:37.187Z,181.05
2023-05-10T11:49:37.252Z,183.15
2023-05-10T11:50:37.276Z,179.64
2023-05-10T11:51:37.299Z,182.38
2023-05-10T11:52:37.365Z,185.17
2023-05-10T11:53:37.402Z,185.65
2023-05-10T11:54:37.309Z,182.81
2023-05-10T11:55:37.391Z,184.22
2023-05-10T11:56:37.385Z,185.95
2023-05-10T11:57:37.382Z,183.34
2023-05-10T11:58:37.499Z,183.85
2023-05-10T11:59:37.411Z,180.48
2023-05-10T12:00:37.473Z,171.82
2023-05-10T12:01:37.523Z,171.47
2023-05-10T12:02:38.277Z,165.34
2023-05-10T12:03:37.761Z,162.70
2023-05-10T12:04:37.677Z,161.76
2023-05-10T12:05:38.204Z,161.64
2023-05-10T12:06:37.630Z,166.13
2023-05-10T12:07:37.689Z,163.28
2023-05-10T12:08:37.715Z,161.77
2023-05-10T12:09:43.835Z,160.08
2023-05-10T12:10:38.715Z,160.22
2023-05-10T12:11:37.714Z,157.22
2023-05-10T12:12:37.658Z,154.79
2023-05-10T12:13:37.710Z,158.50
2023-05-10T12:14:37.659Z,161.33
2023-05-10T12:15:37.672Z,160.11
2023-05-10T12:16:37.699Z,162.62
2023-05-10T12:17:37.787Z,160.86
2023-05-10T12:18:37.659Z,163.73
2023-05-10T12:19:37.678Z,160.28
2023-05-10T12:20:37.684Z,152.88
2023-05-10T12:21:37.583Z,150.57
2023-05-10T12:22:37.594Z,149.45
2023-05-10T12:23:37.598Z,150.10
2023-05-10T12:24:37.571Z,155.16
2023-05-10T12:25:37.633Z,154.17
2023-05-10T12:26:37.857Z,144.75
2023-05-10T12:27:37.561Z,129.63
2023-05-10T12:28:37.562Z,111.81
2023-05-10T12:29:37.750Z,108.85
2023-05-10T12:30:37.720Z,116.08